This demonstration page uses our WeatherBlox Daily Observations layout. Learn more.

Left ArrowRight Arrow

38.83388, -104.82136

Hourly Observations for April 1, 2022

Temp ( °F °C ) Dew Point ( °F °C ) Humidity (%) Winds ( mph kmh ) Pressure ( in mb ) Visibility ( mi km ) Precip ( " mm )
12:58 am 00:58 Mostly Cloudy 41 5.2 15 -9.4 34 34 W 6 9 N/A 10 16 0.00 0.00
1:58 am 01:58 Cloudy 41 4.9 15 -9.3 35 35 Calm N/A 10 16 0.00 0.00
2:58 am 02:58 Cloudy 42 5.4 19 -7.1 40 40 Calm N/A 10 16 0.00 0.00
3:58 am 03:58 Cloudy 41 5.1 17 -8.4 37 37 WNW 3 6 N/A 10 16 0.00 0.00
4:58 am 04:58 Cloudy 43 6.1 17 -8.6 34 34 WNW 3 6 N/A 10 16 0.00 0.00
5:58 am 05:58 Cloudy 42 5.5 16 -8.8 35 35 WSW 6 9 N/A 10 16 0.00 0.00
6:58 am 06:58 Cloudy 40 4.6 20 -6.9 43 43 W 13 20 N/A 10 16 0.00 0.00
7:58 am 07:58 Mostly Cloudy 40 4.2 23 -4.8 52 52 W 9 15 N/A 10 16 0.00 0.00
8:58 am 08:58 Mostly Cloudy 39 3.9 25 -3.8 58 58 W 9 15 N/A 10 16 0.00 0.00
9:58 am 09:58 Mostly Cloudy 42 5.4 28 -2.2 58 58 NW 10 17 N/A 10 16 0.00 0.00
10:58 am 10:58 Mostly Sunny 44 6.5 26 -3.5 49 49 NW 13 20 N/A 10 16 0.00 0.00
11:26 am 11:26 Partly Cloudy 45 7 25 -4 46 46 NNW 13 20 N/A 10 16 0.00 0.00
11:58 am 11:58 Partly Cloudy 44 6.7 24 -4.4 45 45 WNW 8 13 N/A 10 16 0.00 0.00
12:58 pm 12:58 Sunny 47 8.3 26 -3.6 43 43 WNW 12 19 N/A 10 16 0.00 0.00
1:58 pm 13:58 Sunny 48 8.7 25 -3.8 41 41 WNW 8 13 N/A 10 16 0.00 0.00
2:58 pm 14:58 Mostly Sunny 51 10.3 26 -3.1 39 39 ESE 12 19 N/A 10 16 0.00 0.00
3:58 pm 15:58 Partly Cloudy 50 9.9 25 -3.8 38 38 E 13 20 N/A 10 16 0.00 0.00
4:58 pm 16:58 Sunny 47 8.6 24 -4.2 40 40 E 9 15 N/A 10 16 0.00 0.00
5:58 pm 17:58 Sunny 47 8.3 24 -4.2 41 41 E 12 19 N/A 10 16 0.00 0.00
6:58 pm 18:58 Sunny 46 7.8 24 -4.3 42 42 SE 13 20 N/A 10 16 0.00 0.00
7:58 pm 19:58 Clear 45 7.4 25 -4.1 44 44 SSE 10 17 N/A 10 16 0.00 0.00
8:58 pm 20:58 Clear 44 6.9 24 -4.5 44 44 SSE 12 19 N/A 10 16 0.00 0.00
9:58 pm 21:58 Clear 42 5.8 24 -4.4 48 48 SE 14 22 N/A 10 16 0.00 0.00
10:58 pm 22:58 Clear 42 5.4 24 -4.5 49 49 SE 12 19 N/A 10 16 0.00 0.00
11:58 pm 23:58 Clear 42 5.3 23 -5.1 47 47 SSE 10 17 N/A 10 16 0.00 0.00

Powered by AerisWeather